sensor_id;sensor_type;location;lat;lon;timestamp;temperature;humidity
6357;DHT22;3211;53.452;-2.264;2023-10-13T00:00:48;13.10;99.90
6357;DHT22;3211;53.452;-2.264;2023-10-13T00:03:23;13.10;99.90
6357;DHT22;3211;53.452;-2.264;2023-10-13T00:05:51;13.20;99.90
6357;DHT22;3211;53.452;-2.264;2023-10-13T00:08:19;13.10;99.90
6357;DHT22;3211;53.452;-2.264;2023-10-13T00:10:49;13.10;99.90
6357;DHT22;3211;53.452;-2.264;2023-10-13T00:13:16;13.10;99.90
6357;DHT22;3211;53.452;-2.264;2023-10-13T00:15:45;13.20;99.90
6357;DHT22;3211;53.452;-2.264;2023-10-13T00:18:24;13.20;99.90
6357;DHT22;3211;53.452;-2.264;2023-10-13T00:20:52;13.20;99.90
6357;DHT22;3211;53.452;-2.264;2023-10-13T00:23:22;13.20;99.90
6357;DHT22;3211;53.452;-2.264;2023-10-13T00:25:52;13.20;99.90
6357;DHT22;3211;53.452;-2.264;2023-10-13T00:28:28;13.20;99.90
6357;DHT22;3211;53.452;-2.264;2023-10-13T00:31:01;13.10;99.90
6357;DHT22;3211;53.452;-2.264;2023-10-13T00:33:37;13.20;99.90
6357;DHT22;3211;53.452;-2.264;2023-10-13T00:36:06;13.10;99.90
6357;DHT22;3211;53.452;-2.264;2023-10-13T00:38:34;13.10;99.90
6357;DHT22;3211;53.452;-2.264;2023-10-13T00:41:02;13.20;99.90
6357;DHT22;3211;53.452;-2.264;2023-10-13T00:43:44;13.20;99.90
6357;DHT22;3211;53.452;-2.264;2023-10-13T00:46:30;13.20;99.90
6357;DHT22;3211;53.452;-2.264;2023-10-13T00:49:00;13.10;99.90
6357;DHT22;3211;53.452;-2.264;2023-10-13T00:51:27;13.10;99.90
6357;DHT22;3211;53.452;-2.264;2023-10-13T00:54:04;13.10;99.90
6357;DHT22;3211;53.452;-2.264;2023-10-13T00:56:38;13.10;99.90
6357;DHT22;3211;53.452;-2.264;2023-10-13T00:59:09;13.10;99.90
6357;DHT22;3211;53.452;-2.264;2023-10-13T01:01:39;13.10;99.90
6357;DHT22;3211;53.452;-2.264;2023-10-13T01:04:10;13.10;99.90
6357;DHT22;3211;53.452;-2.264;2023-10-13T01:06:39;13.10;99.90
6357;DHT22;3211;53.452;-2.264;2023-10-13T01:09:07;13.10;99.90
6357;DHT22;3211;53.452;-2.264;2023-10-13T01:11:43;13.10;99.90
6357;DHT22;3211;53.452;-2.264;2023-10-13T01:14:10;13.10;99.90
6357;DHT22;3211;53.452;-2.264;2023-10-13T01:16:38;13.10;99.90
6357;DHT22;3211;53.452;-2.264;2023-10-13T01:19:10;13.10;99.90
6357;DHT22;3211;53.452;-2.264;2023-10-13T01:21:38;13.10;99.90
6357;DHT22;3211;53.452;-2.264;2023-10-13T01:24:08;13.10;99.90
6357;DHT22;3211;53.452;-2.264;2023-10-13T01:26:37;13.10;99.90
6357;DHT22;3211;53.452;-2.264;2023-10-13T01:29:05;13.10;99.90
6357;DHT22;3211;53.452;-2.264;2023-10-13T01:31:38;13.10;99.90
6357;DHT22;3211;53.452;-2.264;2023-10-13T01:34:11;13.10;99.90
6357;DHT22;3211;53.452;-2.264;2023-10-13T01:36:39;13.10;99.90
6357;DHT22;3211;53.452;-2.264;2023-10-13T01:39:08;13.10;99.90
6357;DHT22;3211;53.452;-2.264;2023-10-13T01:41:42;13.10;99.90
6357;DHT22;3211;53.452;-2.264;2023-10-13T01:44:08;13.10;99.90
6357;DHT22;3211;53.452;-2.264;2023-10-13T01:46:37;13.10;99.90
6357;DHT22;3211;53.452;-2.264;2023-10-13T01:49:03;13.10;99.90
6357;DHT22;3211;53.452;-2.264;2023-10-13T01:51:30;13.10;99.90
6357;DHT22;3211;53.452;-2.264;2023-10-13T01:53:56;13.10;99.90
6357;DHT22;3211;53.452;-2.264;2023-10-13T01:56:25;13.10;99.90
6357;DHT22;3211;53.452;-2.264;2023-10-13T01:58:55;13.10;99.90
6357;DHT22;3211;53.452;-2.264;2023-10-13T02:01:22;13.10;99.90
6357;DHT22;3211;53.452;-2.264;2023-10-13T02:03:56;13.10;99.90
6357;DHT22;3211;53.452;-2.264;2023-10-13T02:06:29;13.10;99.90
6357;DHT22;3211;53.452;-2.264;2023-10-13T02:08:59;13.10;99.90
6357;DHT22;3211;53.452;-2.264;2023-10-13T02:11:38;13.10;99.90
6357;DHT22;3211;53.452;-2.264;2023-10-13T02:14:04;13.20;99.90
6357;DHT22;3211;53.452;-2.264;2023-10-13T02:16:30;13.20;99.90
6357;DHT22;3211;53.452;-2.264;2023-10-13T02:18:56;13.20;99.90
6357;DHT22;3211;53.452;-2.264;2023-10-13T02:21:30;13.20;99.90
6357;DHT22;3211;53.452;-2.264;2023-10-13T02:23:58;13.20;99.90
6357;DHT22;3211;53.452;-2.264;2023-10-13T02:26:30;13.20;99.90
6357;DHT22;3211;53.452;-2.264;2023-10-13T02:28:59;13.20;99.90
6357;DHT22;3211;53.452;-2.264;2023-10-13T02:31:28;13.20;99.90
6357;DHT22;3211;53.452;-2.264;2023-10-13T02:33:55;13.20;99.90
6357;DHT22;3211;53.452;-2.264;2023-10-13T02:36:22;13.20;99.90
6357;DHT22;3211;53.452;-2.264;2023-10-13T02:39:02;13.20;99.90
6357;DHT22;3211;53.452;-2.264;2023-10-13T02:41:33;13.30;99.90
6357;DHT22;3211;53.452;-2.264;2023-10-13T02:44:05;13.20;99.90
6357;DHT22;3211;53.452;-2.264;2023-10-13T02:46:32;13.30;99.90
6357;DHT22;3211;53.452;-2.264;2023-10-13T02:49:01;13.30;99.90
6357;DHT22;3211;53.452;-2.264;2023-10-13T02:51:35;13.30;99.90
6357;DHT22;3211;53.452;-2.264;2023-10-13T02:54:03;13.30;99.90
6357;DHT22;3211;53.452;-2.264;2023-10-13T02:56:34;13.30;99.90
6357;DHT22;3211;53.452;-2.264;2023-10-13T02:59:04;13.30;99.90
6357;DHT22;3211;53.452;-2.264;2023-10-13T03:01:32;13.30;99.90
6357;DHT22;3211;53.452;-2.264;2023-10-13T03:04:01;13.20;99.90
6357;DHT22;3211;53.452;-2.264;2023-10-13T03:06:27;13.30;99.90
6357;DHT22;3211;53.452;-2.264;2023-10-13T03:08:59;13.30;99.90
6357;DHT22;3211;53.452;-2.264;2023-10-13T03:11:39;13.30;99.90
6357;DHT22;3211;53.452;-2.264;2023-10-13T03:14:09;13.30;99.90
6357;DHT22;3211;53.452;-2.264;2023-10-13T03:16:50;13.30;99.90
6357;DHT22;3211;53.452;-2.264;2023-10-13T03:19:17;13.40;99.90
6357;DHT22;3211;53.452;-2.264;2023-10-13T03:21:44;13.40;99.90
6357;DHT22;3211;53.452;-2.264;2023-10-13T03:24:20;13.40;99.90
6357;DHT22;3211;53.452;-2.264;2023-10-13T03:26:48;13.40;99.90
6357;DHT22;3211;53.452;-2.264;2023-10-13T03:29:19;13.40;99.90
6357;DHT22;3211;53.452;-2.264;2023-10-13T03:31:47;13.40;99.90
6357;DHT22;3211;53.452;-2.264;2023-10-13T03:34:32;13.40;99.90
6357;DHT22;3211;53.452;-2.264;2023-10-13T03:37:00;13.40;99.90
6357;DHT22;3211;53.452;-2.264;2023-10-13T03:39:36;13.40;99.90
6357;DHT22;3211;53.452;-2.264;2023-10-13T03:42:03;13.40;99.90
6357;DHT22;3211;53.452;-2.264;2023-10-13T03:44:33;13.40;99.90
6357;DHT22;3211;53.452;-2.264;2023-10-13T03:47:04;13.50;99.90
6357;DHT22;3211;53.452;-2.264;2023-10-13T03:49:44;13.50;99.90
6357;DHT22;3211;53.452;-2.264;2023-10-13T03:52:11;13.50;99.90
6357;DHT22;3211;53.452;-2.264;2023-10-13T03:54:39;13.50;99.90
6357;DHT22;3211;53.452;-2.264;2023-10-13T03:57:06;13.50;99.90
6357;DHT22;3211;53.452;-2.264;2023-10-13T03:59:38;13.50;99.90
6357;DHT22;3211;53.452;-2.264;2023-10-13T04:02:06;13.50;99.90
6357;DHT22;3211;53.452;-2.264;2023-10-13T04:04:43;13.60;99.90
6357;DHT22;3211;53.452;-2.264;2023-10-13T04:07:14;13.50;99.90
6357;DHT22;3211;53.452;-2.264;2023-10-13T04:10:06;13.50;99.90
6357;DHT22;3211;53.452;-2.264;2023-10-13T04:12:49;13.60;99.90
6357;DHT22;3211;53.452;-2.264;2023-10-13T04:15:42;13.50;99.90
6357;DHT22;3211;53.452;-2.264;2023-10-13T04:18:29;13.50;99.90
6357;DHT22;3211;53.452;-2.264;2023-10-13T04:21:15;13.50;99.90
6357;DHT22;3211;53.452;-2.264;2023-10-13T04:24:06;13.50;99.90
6357;DHT22;3211;53.452;-2.264;2023-10-13T04:26:49;13.50;99.90
6357;DHT22;3211;53.452;-2.264;2023-10-13T04:29:44;13.60;99.90
6357;DHT22;3211;53.452;-2.264;2023-10-13T04:32:19;13.50;99.90
6357;DHT22;3211;53.452;-2.264;2023-10-13T04:34:55;13.60;99.90
6357;DHT22;3211;53.452;-2.264;2023-10-13T04:37:26;13.60;99.90
6357;DHT22;3211;53.452;-2.264;2023-10-13T04:39:55;13.60;99.90
6357;DHT22;3211;53.452;-2.264;2023-10-13T04:42:25;13.60;99.90
6357;DHT22;3211;53.452;-2.264;2023-10-13T04:45:10;13.70;99.90
6357;DHT22;3211;53.452;-2.264;2023-10-13T04:48:05;13.70;99.90
6357;DHT22;3211;53.452;-2.264;2023-10-13T04:50:58;13.70;99.90
6357;DHT22;3211;53.452;-2.264;2023-10-13T04:53:46;13.70;99.90
6357;DHT22;3211;53.452;-2.264;2023-10-13T04:56:29;13.70;99.90
6357;DHT22;3211;53.452;-2.264;2023-10-13T04:59:14;13.70;99.90
6357;DHT22;3211;53.452;-2.264;2023-10-13T05:01:57;13.70;99.90
6357;DHT22;3211;53.452;-2.264;2023-10-13T05:04:43;13.70;99.90
6357;DHT22;3211;53.452;-2.264;2023-10-13T05:07:27;13.70;99.90
6357;DHT22;3211;53.452;-2.264;2023-10-13T05:10:12;13.80;99.90
6357;DHT22;3211;53.452;-2.264;2023-10-13T05:12:56;13.70;99.90
6357;DHT22;3211;53.452;-2.264;2023-10-13T05:15:44;13.80;99.90
6357;DHT22;3211;53.452;-2.264;2023-10-13T05:18:28;13.80;99.90
6357;DHT22;3211;53.452;-2.264;2023-10-13T05:21:26;13.80;99.90
6357;DHT22;3211;53.452;-2.264;2023-10-13T05:24:10;13.80;99.90
6357;DHT22;3211;53.452;-2.264;2023-10-13T05:26:55;13.80;99.90
6357;DHT22;3211;53.452;-2.264;2023-10-13T05:29:40;13.80;99.90
6357;DHT22;3211;53.452;-2.264;2023-10-13T05:32:25;13.80;99.90
6357;DHT22;3211;53.452;-2.264;2023-10-13T05:35:09;13.80;99.90
6357;DHT22;3211;53.452;-2.264;2023-10-13T05:37:55;13.80;99.90
6357;DHT22;3211;53.452;-2.264;2023-10-13T05:40:40;13.80;99.90
6357;DHT22;3211;53.452;-2.264;2023-10-13T05:43:24;13.80;99.90
6357;DHT22;3211;53.452;-2.264;2023-10-13T05:46:08;13.80;99.90
6357;DHT22;3211;53.452;-2.264;2023-10-13T05:49:03;13.80;99.90
6357;DHT22;3211;53.452;-2.264;2023-10-13T05:51:52;13.70;99.90
6357;DHT22;3211;53.452;-2.264;2023-10-13T05:54:25;13.80;99.90
6357;DHT22;3211;53.452;-2.264;2023-10-13T05:57:09;13.70;99.90
6357;DHT22;3211;53.452;-2.264;2023-10-13T05:59:54;13.70;99.90
6357;DHT22;3211;53.452;-2.264;2023-10-13T06:02:38;13.70;99.90
6357;DHT22;3211;53.452;-2.264;2023-10-13T06:05:22;13.70;99.90
6357;DHT22;3211;53.452;-2.264;2023-10-13T06:08:07;13.70;99.90
6357;DHT22;3211;53.452;-2.264;2023-10-13T06:11:01;13.80;99.90
6357;DHT22;3211;53.452;-2.264;2023-10-13T06:13:51;13.80;99.90
6357;DHT22;3211;53.452;-2.264;2023-10-13T06:16:35;13.80;99.90
6357;DHT22;3211;53.452;-2.264;2023-10-13T06:19:22;13.80;99.90
6357;DHT22;3211;53.452;-2.264;2023-10-13T06:22:18;13.80;99.90
6357;DHT22;3211;53.452;-2.264;2023-10-13T06:25:02;13.90;99.90
6357;DHT22;3211;53.452;-2.264;2023-10-13T06:27:48;13.90;99.90
6357;DHT22;3211;53.452;-2.264;2023-10-13T06:30:32;13.90;99.90
6357;DHT22;3211;53.452;-2.264;2023-10-13T06:32:59;13.90;99.90
6357;DHT22;3211;53.452;-2.264;2023-10-13T06:35:26;13.90;99.90
6357;DHT22;3211;53.452;-2.264;2023-10-13T06:37:54;13.90;99.90
6357;DHT22;3211;53.452;-2.264;2023-10-13T06:40:25;13.90;99.90
6357;DHT22;3211;53.452;-2.264;2023-10-13T06:43:00;13.90;99.90
6357;DHT22;3211;53.452;-2.264;2023-10-13T06:45:42;13.90;99.90
6357;DHT22;3211;53.452;-2.264;2023-10-13T06:48:09;13.80;99.90
6357;DHT22;3211;53.452;-2.264;2023-10-13T06:50:40;13.80;99.90
6357;DHT22;3211;53.452;-2.264;2023-10-13T06:53:14;13.80;99.90
6357;DHT22;3211;53.452;-2.264;2023-10-13T06:55:41;13.80;99.90
6357;DHT22;3211;53.452;-2.264;2023-10-13T06:58:13;13.80;99.90
6357;DHT22;3211;53.452;-2.264;2023-10-13T07:00:42;13.90;99.90
6357;DHT22;3211;53.452;-2.264;2023-10-13T07:03:18;13.90;99.90
6357;DHT22;3211;53.452;-2.264;2023-10-13T07:05:46;13.90;99.90
6357;DHT22;3211;53.452;-2.264;2023-10-13T07:08:15;13.90;99.90
6357;DHT22;3211;53.452;-2.264;2023-10-13T07:10:49;13.90;99.90
6357;DHT22;3211;53.452;-2.264;2023-10-13T07:13:19;13.90;99.90
6357;DHT22;3211;53.452;-2.264;2023-10-13T07:15:47;13.90;99.90
6357;DHT22;3211;53.452;-2.264;2023-10-13T07:18:15;13.90;99.90
6357;DHT22;3211;53.452;-2.264;2023-10-13T07:20:43;13.90;99.90
6357;DHT22;3211;53.452;-2.264;2023-10-13T07:23:13;13.80;99.90
6357;DHT22;3211;53.452;-2.264;2023-10-13T07:25:52;13.80;99.90
6357;DHT22;3211;53.452;-2.264;2023-10-13T07:28:21;13.80;99.90
6357;DHT22;3211;53.452;-2.264;2023-10-13T07:30:48;13.70;99.90
6357;DHT22;3211;53.452;-2.264;2023-10-13T07:33:37;13.70;99.90
6357;DHT22;3211;53.452;-2.264;2023-10-13T07:36:07;13.70;99.90
6357;DHT22;3211;53.452;-2.264;2023-10-13T07:38:42;13.70;99.90
6357;DHT22;3211;53.452;-2.264;2023-10-13T07:41:14;13.70;99.90
6357;DHT22;3211;53.452;-2.264;2023-10-13T07:43:43;13.70;99.90
6357;DHT22;3211;53.452;-2.264;2023-10-13T07:46:11;13.70;99.90
6357;DHT22;3211;53.452;-2.264;2023-10-13T07:48:39;13.70;99.90
6357;DHT22;3211;53.452;-2.264;2023-10-13T07:51:11;13.80;99.90
6357;DHT22;3211;53.452;-2.264;2023-10-13T07:53:41;13.90;99.90
6357;DHT22;3211;53.452;-2.264;2023-10-13T07:56:09;13.90;99.90
6357;DHT22;3211;53.452;-2.264;2023-10-13T07:58:38;13.90;99.90
6357;DHT22;3211;53.452;-2.264;2023-10-13T08:01:15;13.80;99.90
6357;DHT22;3211;53.452;-2.264;2023-10-13T08:03:45;13.80;99.90
6357;DHT22;3211;53.452;-2.264;2023-10-13T08:06:12;13.90;99.90
6357;DHT22;3211;53.452;-2.264;2023-10-13T08:08:47;13.90;99.90
6357;DHT22;3211;53.452;-2.264;2023-10-13T08:11:19;14.00;99.90
6357;DHT22;3211;53.452;-2.264;2023-10-13T08:13:58;14.00;99.90
6357;DHT22;3211;53.452;-2.264;2023-10-13T08:16:29;14.10;99.90
6357;DHT22;3211;53.452;-2.264;2023-10-13T08:19:12;14.10;99.90
6357;DHT22;3211;53.452;-2.264;2023-10-13T08:21:41;14.10;99.90
6357;DHT22;3211;53.452;-2.264;2023-10-13T08:24:15;14.10;99.90
6357;DHT22;3211;53.452;-2.264;2023-10-13T08:26:50;14.20;99.90
6357;DHT22;3211;53.452;-2.264;2023-10-13T08:29:23;14.10;99.90
6357;DHT22;3211;53.452;-2.264;2023-10-13T08:32:09;14.10;99.90
6357;DHT22;3211;53.452;-2.264;2023-10-13T08:35:00;14.10;99.90
6357;DHT22;3211;53.452;-2.264;2023-10-13T08:37:45;14.20;99.90
6357;DHT22;3211;53.452;-2.264;2023-10-13T08:40:27;14.10;99.90
6357;DHT22;3211;53.452;-2.264;2023-10-13T08:43:27;14.10;99.90
6357;DHT22;3211;53.452;-2.264;2023-10-13T08:46:09;14.10;99.90
6357;DHT22;3211;53.452;-2.264;2023-10-13T08:48:53;14.10;99.90
6357;DHT22;3211;53.452;-2.264;2023-10-13T08:51:36;14.20;99.90
6357;DHT22;3211;53.452;-2.264;2023-10-13T08:54:15;14.20;99.90
6357;DHT22;3211;53.452;-2.264;2023-10-13T08:57:00;14.20;99.90
6357;DHT22;3211;53.452;-2.264;2023-10-13T08:59:45;14.10;99.90
6357;DHT22;3211;53.452;-2.264;2023-10-13T09:02:21;14.00;99.90
6357;DHT22;3211;53.452;-2.264;2023-10-13T09:05:10;13.90;99.90
6357;DHT22;3211;53.452;-2.264;2023-10-13T09:07:52;14.00;99.90
6357;DHT22;3211;53.452;-2.264;2023-10-13T09:10:22;13.90;99.90
6357;DHT22;3211;53.452;-2.264;2023-10-13T09:12:58;14.00;99.90
6357;DHT22;3211;53.452;-2.264;2023-10-13T09:15:29;13.90;99.90
6357;DHT22;3211;53.452;-2.264;2023-10-13T09:18:10;13.80;99.90
6357;DHT22;3211;53.452;-2.264;2023-10-13T09:20:41;13.80;99.90
6357;DHT22;3211;53.452;-2.264;2023-10-13T09:23:09;13.70;99.90
6357;DHT22;3211;53.452;-2.264;2023-10-13T09:25:39;13.70;99.90
6357;DHT22;3211;53.452;-2.264;2023-10-13T09:28:19;13.60;99.90
6357;DHT22;3211;53.452;-2.264;2023-10-13T09:30:48;13.60;99.90
6357;DHT22;3211;53.452;-2.264;2023-10-13T09:33:19;13.60;99.90
6357;DHT22;3211;53.452;-2.264;2023-10-13T09:35:55;13.50;99.90
6357;DHT22;3211;53.452;-2.264;2023-10-13T09:38:25;13.60;99.90
6357;DHT22;3211;53.452;-2.264;2023-10-13T09:40:51;13.60;99.90
6357;DHT22;3211;53.452;-2.264;2023-10-13T09:43:23;13.80;99.90
6357;DHT22;3211;53.452;-2.264;2023-10-13T09:45:49;13.70;99.90
6357;DHT22;3211;53.452;-2.264;2023-10-13T09:48:32;13.60;99.90
6357;DHT22;3211;53.452;-2.264;2023-10-13T09:51:01;13.60;99.90
6357;DHT22;3211;53.452;-2.264;2023-10-13T09:53:31;13.60;99.90
6357;DHT22;3211;53.452;-2.264;2023-10-13T09:56:02;13.70;99.90
6357;DHT22;3211;53.452;-2.264;2023-10-13T09:58:42;13.80;99.90
6357;DHT22;3211;53.452;-2.264;2023-10-13T10:01:19;13.80;99.90
6357;DHT22;3211;53.452;-2.264;2023-10-13T10:04:07;13.70;99.90
6357;DHT22;3211;53.452;-2.264;2023-10-13T10:06:36;13.80;99.90
6357;DHT22;3211;53.452;-2.264;2023-10-13T10:09:10;13.90;99.90
6357;DHT22;3211;53.452;-2.264;2023-10-13T10:12:05;14.00;99.90
6357;DHT22;3211;53.452;-2.264;2023-10-13T10:17:39;14.10;99.90
6357;DHT22;3211;53.452;-2.264;2023-10-13T10:20:08;13.90;99.90
6357;DHT22;3211;53.452;-2.264;2023-10-13T10:22:55;13.90;99.90
6357;DHT22;3211;53.452;-2.264;2023-10-13T10:25:29;14.00;99.90
6357;DHT22;3211;53.452;-2.264;2023-10-13T10:28:01;14.20;99.90
6357;DHT22;3211;53.452;-2.264;2023-10-13T10:30:32;14.10;99.90
6357;DHT22;3211;53.452;-2.264;2023-10-13T10:33:01;14.20;99.90
6357;DHT22;3211;53.452;-2.264;2023-10-13T10:35:33;14.30;99.90
6357;DHT22;3211;53.452;-2.264;2023-10-13T10:38:09;14.30;99.90
6357;DHT22;3211;53.452;-2.264;2023-10-13T10:40:55;14.30;99.90
6357;DHT22;3211;53.452;-2.264;2023-10-13T10:43:29;14.20;99.90
6357;DHT22;3211;53.452;-2.264;2023-10-13T10:46:07;14.10;99.90
6357;DHT22;3211;53.452;-2.264;2023-10-13T10:48:36;13.70;99.90
6357;DHT22;3211;53.452;-2.264;2023-10-13T10:51:09;13.40;99.90
6357;DHT22;3211;53.452;-2.264;2023-10-13T10:53:48;13.20;99.90
6357;DHT22;3211;53.452;-2.264;2023-10-13T10:56:16;13.10;99.90
6357;DHT22;3211;53.452;-2.264;2023-10-13T10:58:47;13.10;99.90
6357;DHT22;3211;53.452;-2.264;2023-10-13T11:01:14;13.10;99.90
6357;DHT22;3211;53.452;-2.264;2023-10-13T11:03:56;13.30;99.90
6357;DHT22;3211;53.452;-2.264;2023-10-13T11:06:34;13.50;99.90
6357;DHT22;3211;53.452;-2.264;2023-10-13T11:09:06;13.30;99.90
6357;DHT22;3211;53.452;-2.264;2023-10-13T11:11:45;13.20;99.90
6357;DHT22;3211;53.452;-2.264;2023-10-13T11:14:20;13.20;99.90
6357;DHT22;3211;53.452;-2.264;2023-10-13T11:16:49;13.10;99.90
6357;DHT22;3211;53.452;-2.264;2023-10-13T11:19:20;13.00;99.90
6357;DHT22;3211;53.452;-2.264;2023-10-13T11:21:52;13.00;99.90
6357;DHT22;3211;53.452;-2.264;2023-10-13T11:24:21;13.10;99.90
6357;DHT22;3211;53.452;-2.264;2023-10-13T11:26:50;13.00;99.90
6357;DHT22;3211;53.452;-2.264;2023-10-13T11:29:18;12.80;99.90
6357;DHT22;3211;53.452;-2.264;2023-10-13T11:31:46;12.60;99.90
6357;DHT22;3211;53.452;-2.264;2023-10-13T11:34:19;12.60;99.90
6357;DHT22;3211;53.452;-2.264;2023-10-13T11:36:46;12.70;99.90
6357;DHT22;3211;53.452;-2.264;2023-10-13T11:39:13;12.80;99.90
6357;DHT22;3211;53.452;-2.264;2023-10-13T11:41:46;12.80;99.90
6357;DHT22;3211;53.452;-2.264;2023-10-13T11:44:20;12.70;99.90
6357;DHT22;3211;53.452;-2.264;2023-10-13T11:47:09;12.60;99.90
6357;DHT22;3211;53.452;-2.264;2023-10-13T11:49:58;12.50;99.90
6357;DHT22;3211;53.452;-2.264;2023-10-13T11:52:25;12.50;99.90
6357;DHT22;3211;53.452;-2.264;2023-10-13T11:54:55;12.30;97.10
6357;DHT22;3211;53.452;-2.264;2023-10-13T11:57:23;12.40;99.90
6357;DHT22;3211;53.452;-2.264;2023-10-13T11:59:50;12.60;99.90
6357;DHT22;3211;53.452;-2.264;2023-10-13T12:02:21;12.60;95.10
6357;DHT22;3211;53.452;-2.264;2023-10-13T12:05:06;12.50;99.90
6357;DHT22;3211;53.452;-2.264;2023-10-13T12:07:42;12.30;85.20
6357;DHT22;3211;53.452;-2.264;2023-10-13T12:10:14;12.50;99.90
6357;DHT22;3211;53.452;-2.264;2023-10-13T12:13:01;12.50;99.90
6357;DHT22;3211;53.452;-2.264;2023-10-13T12:15:36;12.40;99.90
6357;DHT22;3211;53.452;-2.264;2023-10-13T12:18:14;12.30;99.90
6357;DHT22;3211;53.452;-2.264;2023-10-13T12:20:41;12.20;99.90
6357;DHT22;3211;53.452;-2.264;2023-10-13T12:23:11;12.10;99.90
6357;DHT22;3211;53.452;-2.264;2023-10-13T12:25:43;12.20;99.90
6357;DHT22;3211;53.452;-2.264;2023-10-13T12:28:27;12.00;99.90
6357;DHT22;3211;53.452;-2.264;2023-10-13T12:31:02;12.00;99.90
6357;DHT22;3211;53.452;-2.264;2023-10-13T12:33:32;12.10;99.90
6357;DHT22;3211;53.452;-2.264;2023-10-13T12:36:03;12.00;99.90
6357;DHT22;3211;53.452;-2.264;2023-10-13T12:38:35;12.20;99.90
6357;DHT22;3211;53.452;-2.264;2023-10-13T12:41:37;12.20;99.90
6357;DHT22;3211;53.452;-2.264;2023-10-13T12:44:24;12.20;99.90
6357;DHT22;3211;53.452;-2.264;2023-10-13T12:47:08;12.20;99.90
6357;DHT22;3211;53.452;-2.264;2023-10-13T12:49:53;12.30;99.90
6357;DHT22;3211;53.452;-2.264;2023-10-13T12:52:25;12.40;99.90
6357;DHT22;3211;53.452;-2.264;2023-10-13T12:54:53;12.60;99.90
6357;DHT22;3211;53.452;-2.264;2023-10-13T12:57:32;12.60;99.90
6357;DHT22;3211;53.452;-2.264;2023-10-13T13:00:00;12.60;99.90
6357;DHT22;3211;53.452;-2.264;2023-10-13T13:02:42;12.50;99.90
6357;DHT22;3211;53.452;-2.264;2023-10-13T13:05:09;12.30;99.90
6357;DHT22;3211;53.452;-2.264;2023-10-13T13:07:38;12.30;99.90
6357;DHT22;3211;53.452;-2.264;2023-10-13T13:10:12;12.50;99.90
6357;DHT22;3211;53.452;-2.264;2023-10-13T13:12:40;12.40;99.90
6357;DHT22;3211;53.452;-2.264;2023-10-13T13:15:09;12.50;99.90
6357;DHT22;3211;53.452;-2.264;2023-10-13T13:17:37;12.40;99.90
6357;DHT22;3211;53.452;-2.264;2023-10-13T13:20:05;12.20;99.90
6357;DHT22;3211;53.452;-2.264;2023-10-13T13:22:37;12.00;99.90
6357;DHT22;3211;53.452;-2.264;2023-10-13T13:25:05;11.90;99.90
6357;DHT22;3211;53.452;-2.264;2023-10-13T13:27:35;11.90;99.90
6357;DHT22;3211;53.452;-2.264;2023-10-13T13:30:03;11.90;99.90
6357;DHT22;3211;53.452;-2.264;2023-10-13T13:32:39;12.00;99.90
6357;DHT22;3211;53.452;-2.264;2023-10-13T13:35:07;12.00;99.90
6357;DHT22;3211;53.452;-2.264;2023-10-13T13:37:39;12.10;99.90
6357;DHT22;3211;53.452;-2.264;2023-10-13T13:40:09;12.20;99.90
6357;DHT22;3211;53.452;-2.264;2023-10-13T13:42:46;12.20;99.90
6357;DHT22;3211;53.452;-2.264;2023-10-13T13:45:14;12.40;99.90
6357;DHT22;3211;53.452;-2.264;2023-10-13T13:47:49;12.50;99.90
6357;DHT22;3211;53.452;-2.264;2023-10-13T13:50:21;12.50;99.90
6357;DHT22;3211;53.452;-2.264;2023-10-13T13:52:51;12.40;99.90
6357;DHT22;3211;53.452;-2.264;2023-10-13T13:55:21;12.20;1.00
6357;DHT22;3211;53.452;-2.264;2023-10-13T13:57:49;12.40;1.00
6357;DHT22;3211;53.452;-2.264;2023-10-13T14:00:17;12.40;1.00
6357;DHT22;3211;53.452;-2.264;2023-10-13T14:02:50;12.50;99.90
6357;DHT22;3211;53.452;-2.264;2023-10-13T14:05:17;12.40;99.90
6357;DHT22;3211;53.452;-2.264;2023-10-13T14:07:44;12.40;99.90
6357;DHT22;3211;53.452;-2.264;2023-10-13T14:10:16;12.50;84.90
6357;DHT22;3211;53.452;-2.264;2023-10-13T14:12:59;12.50;1.00
6357;DHT22;3211;53.452;-2.264;2023-10-13T14:15:33;12.50;1.00
6357;DHT22;3211;53.452;-2.264;2023-10-13T14:18:08;12.60;95.70
6357;DHT22;3211;53.452;-2.264;2023-10-13T14:20:40;13.20;93.20
6357;DHT22;3211;53.452;-2.264;2023-10-13T14:23:08;15.20;1.00
6357;DHT22;3211;53.452;-2.264;2023-10-13T14:25:37;14.90;1.00
6357;DHT22;3211;53.452;-2.264;2023-10-13T14:28:05;14.60;1.00
6357;DHT22;3211;53.452;-2.264;2023-10-13T14:30:32;17.30;99.90
6357;DHT22;3211;53.452;-2.264;2023-10-13T14:32:59;17.30;99.90
6357;DHT22;3211;53.452;-2.264;2023-10-13T14:35:28;18.10;99.90
6357;DHT22;3211;53.452;-2.264;2023-10-13T14:37:55;17.90;99.90
6357;DHT22;3211;53.452;-2.264;2023-10-13T14:40:22;16.50;1.00
6357;DHT22;3211;53.452;-2.264;2023-10-13T14:42:49;17.80;37.60
6357;DHT22;3211;53.452;-2.264;2023-10-13T14:45:16;17.30;99.90
6357;DHT22;3211;53.452;-2.264;2023-10-13T14:47:44;15.80;99.90
6357;DHT22;3211;53.452;-2.264;2023-10-13T14:50:12;14.60;99.90
6357;DHT22;3211;53.452;-2.264;2023-10-13T14:52:46;14.70;1.00
6357;DHT22;3211;53.452;-2.264;2023-10-13T14:55:13;14.50;1.00
6357;DHT22;3211;53.452;-2.264;2023-10-13T14:57:46;14.50;1.00
6357;DHT22;3211;53.452;-2.264;2023-10-13T15:00:16;14.20;1.00
6357;DHT22;3211;53.452;-2.264;2023-10-13T15:02:51;13.90;1.00
6357;DHT22;3211;53.452;-2.264;2023-10-13T15:05:18;13.70;1.00
6357;DHT22;3211;53.452;-2.264;2023-10-13T15:07:46;13.70;16.70
6357;DHT22;3211;53.452;-2.264;2023-10-13T15:10:14;14.00;99.90
6357;DHT22;3211;53.452;-2.264;2023-10-13T15:12:42;14.60;1.00
6357;DHT22;3211;53.452;-2.264;2023-10-13T15:15:10;15.60;1.00
6357;DHT22;3211;53.452;-2.264;2023-10-13T15:17:42;15.40;99.90
6357;DHT22;3211;53.452;-2.264;2023-10-13T15:20:09;15.50;99.90
6357;DHT22;3211;53.452;-2.264;2023-10-13T15:22:41;15.90;99.90
6357;DHT22;3211;53.452;-2.264;2023-10-13T15:25:10;15.40;99.90
6357;DHT22;3211;53.452;-2.264;2023-10-13T15:27:46;16.80;99.90
6357;DHT22;3211;53.452;-2.264;2023-10-13T15:30:22;19.00;99.90
6357;DHT22;3211;53.452;-2.264;2023-10-13T15:32:52;18.70;1.00
6357;DHT22;3211;53.452;-2.264;2023-10-13T15:35:22;18.70;1.00
6357;DHT22;3211;53.452;-2.264;2023-10-13T15:37:54;18.60;1.00
6357;DHT22;3211;53.452;-2.264;2023-10-13T15:40:23;16.30;99.90
6357;DHT22;3211;53.452;-2.264;2023-10-13T15:42:53;15.20;1.00
6357;DHT22;3211;53.452;-2.264;2023-10-13T15:45:25;15.00;1.00
6357;DHT22;3211;53.452;-2.264;2023-10-13T15:47:58;14.50;1.00
6357;DHT22;3211;53.452;-2.264;2023-10-13T15:50:25;15.60;96.00
6357;DHT22;3211;53.452;-2.264;2023-10-13T15:52:55;15.20;1.00
6357;DHT22;3211;53.452;-2.264;2023-10-13T15:55:23;15.60;1.00
6357;DHT22;3211;53.452;-2.264;2023-10-13T15:57:51;15.20;1.00
6357;DHT22;3211;53.452;-2.264;2023-10-13T16:00:19;15.40;1.00
6357;DHT22;3211;53.452;-2.264;2023-10-13T16:02:53;15.30;1.00
6357;DHT22;3211;53.452;-2.264;2023-10-13T16:05:22;14.60;1.00
6357;DHT22;3211;53.452;-2.264;2023-10-13T16:07:51;14.10;55.00
6357;DHT22;3211;53.452;-2.264;2023-10-13T16:10:22;13.60;1.00
6357;DHT22;3211;53.452;-2.264;2023-10-13T16:12:49;13.60;1.00
6357;DHT22;3211;53.452;-2.264;2023-10-13T16:15:16;13.70;41.90
6357;DHT22;3211;53.452;-2.264;2023-10-13T16:17:44;13.80;46.40
6357;DHT22;3211;53.452;-2.264;2023-10-13T16:20:11;13.50;33.20
6357;DHT22;3211;53.452;-2.264;2023-10-13T16:22:43;13.40;60.40
6357;DHT22;3211;53.452;-2.264;2023-10-13T16:25:11;13.50;99.90
6357;DHT22;3211;53.452;-2.264;2023-10-13T16:27:41;13.30;99.90
6357;DHT22;3211;53.452;-2.264;2023-10-13T16:30:10;13.10;99.90
6357;DHT22;3211;53.452;-2.264;2023-10-13T16:32:41;13.10;99.90